Time;durP1;ratioP1;P1;durP2;ratioP2;P2;SDS_P1;SDS_P2;PMS_P1;PMS_P2;Temp;Humidity;BMP_temperature;BMP_pressure;BME280_temperature;BME280_humidity;BME280_pressure;Samples;Min_cycle;Max_cycle;Signal;HPM_P1;HPM_P2
2022/10/23 00:01:31;;;;;;;3.97;3.57;;;21.70;99.90;;;;;;5041069;28;20459;-50
2022/10/23 00:04:00;;;;;;;8.43;3.43;;;21.70;99.90;;;;;;5034583;28;20453;-49
2022/10/23 00:06:29;;;;;;;4.27;3.37;;;21.70;99.90;;;;;;5043847;28;20462;-50
2022/10/23 00:08:56;;;;;;;5.13;3.60;;;21.60;99.90;;;;;;5047196;28;20860;-53
2022/10/23 00:11:25;;;;;;;10.73;3.93;;;21.60;99.90;;;;;;5047854;28;20457;-51
2022/10/23 00:13:55;;;;;;;4.10;3.30;;;21.60;99.90;;;;;;5039228;28;20463;-51
2022/10/23 00:16:21;;;;;;;5.32;3.90;;;21.60;99.90;;;;;;5038630;28;20516;-48
2022/10/23 00:18:49;;;;;;;5.10;3.78;;;21.50;99.90;;;;;;5042467;28;20217;-50
2022/10/23 00:21:17;;;;;;;3.50;3.20;;;21.50;99.90;;;;;;5044556;28;20207;-53
2022/10/23 00:23:44;;;;;;;4.70;2.95;;;21.50;99.90;;;;;;5046874;28;20187;-53
2022/10/23 00:26:14;;;;;;;4.10;3.25;;;21.50;99.90;;;;;;5035547;28;20613;-53
2022/10/23 00:28:41;;;;;;;4.10;3.50;;;21.50;99.90;;;;;;5035717;28;20673;-50
2022/10/23 00:31:08;;;;;;;4.40;3.90;;;21.50;99.90;;;;;;5037246;28;20466;-50
2022/10/23 00:33:35;;;;;;;4.07;3.67;;;21.40;99.90;;;;;;5034043;28;20465;-50
2022/10/23 00:36:06;;;;;;;5.37;3.43;;;21.40;99.90;;;;;;5031886;28;20478;-50
2022/10/23 00:38:32;;;;;;;4.47;3.20;;;21.40;99.90;;;;;;5043473;28;20495;-51
2022/10/23 00:40:59;;;;;;;3.65;3.35;;;21.40;99.90;;;;;;5047778;28;20465;-47
2022/10/23 00:43:28;;;;;;;3.85;3.30;;;21.40;99.90;;;;;;5042548;28;20548;-53
2022/10/23 00:45:56;;;;;;;3.53;3.00;;;21.40;99.90;;;;;;5040826;28;20334;-49
2022/10/23 00:48:25;;;;;;;3.80;3.30;;;21.30;99.90;;;;;;5042399;28;20207;-50
2022/10/23 00:50:52;;;;;;;4.50;3.08;;;21.30;99.90;;;;;;5039940;28;20457;-50
2022/10/23 00:53:21;;;;;;;3.70;3.20;;;21.30;99.90;;;;;;5047883;28;20203;-50
2022/10/23 00:55:52;;;;;;;5.53;2.80;;;21.30;99.90;;;;;;5041552;28;20586;-51
2022/10/23 00:58:20;;;;;;;5.82;3.55;;;21.30;99.90;;;;;;5047385;28;20684;-49
2022/10/23 01:00:49;;;;;;;4.68;3.80;;;21.20;99.90;;;;;;5042037;28;20192;-50
2022/10/23 01:03:19;;;;;;;3.92;3.08;;;21.20;99.90;;;;;;5037912;28;20222;-53
2022/10/23 01:05:50;;;;;;;3.53;2.97;;;21.20;99.90;;;;;;5046292;28;20206;-51
2022/10/23 01:08:24;;;;;;;3.15;2.85;;;21.20;99.90;;;;;;5037163;28;20250;-52
2022/10/23 01:10:56;;;;;;;5.05;2.88;;;21.20;99.90;;;;;;5044991;28;20198;-52
2022/10/23 01:13:34;;;;;;;4.18;3.10;;;21.10;99.90;;;;;;5041766;28;20270;-50
2022/10/23 01:16:07;;;;;;;3.70;3.15;;;21.10;99.90;;;;;;5033969;28;20234;-51
2022/10/23 01:18:41;;;;;;;3.22;2.70;;;21.10;99.90;;;;;;5045252;28;20187;-52
2022/10/23 01:21:12;;;;;;;3.85;3.40;;;21.10;99.90;;;;;;5041552;28;20711;-53
2022/10/23 01:24:05;;;;;;;3.83;3.13;;;21.10;99.90;;;;;;5038046;28;20202;-50
2022/10/23 01:26:44;;;;;;;3.67;2.80;;;21.10;99.90;;;;;;5044873;28;20577;-50
2022/10/23 01:29:19;;;;;;;5.72;3.47;;;21.00;99.90;;;;;;5043789;28;20569;-50
2022/10/23 01:31:51;;;;;;;3.58;2.90;;;21.00;99.90;;;;;;5038211;28;20192;-49
2022/10/23 01:34:23;;;;;;;4.93;3.00;;;21.00;99.90;;;;;;5048265;28;20199;-50
2022/10/23 01:36:52;;;;;;;6.07;3.20;;;21.00;99.90;;;;;;5044177;28;20195;-53
2022/10/23 01:39:24;;;;;;;3.50;2.92;;;20.90;99.90;;;;;;5047271;28;20570;-50
2022/10/23 01:41:55;;;;;;;3.58;3.28;;;20.90;99.90;;;;;;5043704;28;20207;-50
2022/10/23 01:44:28;;;;;;;3.78;2.75;;;20.90;99.90;;;;;;5043845;28;20203;-50
2022/10/23 01:46:57;;;;;;;3.83;2.65;;;20.90;99.90;;;;;;5037086;28;20202;-48
2022/10/23 01:49:24;;;;;;;3.75;3.35;;;20.90;99.90;;;;;;5043086;28;20199;-49
2022/10/23 01:51:54;;;;;;;4.40;2.97;;;20.80;99.90;;;;;;5045640;28;20194;-49
2022/10/23 01:54:26;;;;;;;4.65;3.35;;;20.80;99.90;;;;;;5043953;28;20278;-49
2022/10/23 01:56:54;;;;;;;3.30;3.00;;;20.80;99.90;;;;;;5037388;28;20206;-49
2022/10/23 01:59:26;;;;;;;3.80;3.38;;;20.80;99.90;;;;;;5044193;28;20681;-49
2022/10/23 02:01:57;;;;;;;6.20;3.35;;;20.80;99.90;;;;;;5032478;28;20617;-50
2022/10/23 02:04:27;;;;;;;4.40;2.45;;;20.70;99.90;;;;;;5038859;28;20191;-51
2022/10/23 02:06:54;;;;;;;3.25;2.95;;;20.70;99.90;;;;;;5043606;28;20658;-50
2022/10/23 02:09:21;;;;;;;4.63;3.03;;;20.70;99.90;;;;;;5037624;28;20612;-49
2022/10/23 02:11:54;;;;;;;4.05;3.15;;;20.70;99.90;;;;;;5036929;28;20253;-53
2022/10/23 02:14:32;;;;;;;6.95;3.25;;;20.70;99.90;;;;;;5045280;28;20228;-51
2022/10/23 02:17:09;;;;;;;2.88;2.53;;;20.60;99.90;;;;;;5040655;28;20226;-50
2022/10/23 02:19:42;;;;;;;3.45;2.58;;;20.60;99.90;;;;;;5040929;28;20558;-50
2022/10/23 02:22:13;;;;;;;4.07;3.58;;;20.60;99.90;;;;;;5039840;28;20680;-51
2022/10/23 02:24:45;;;;;;;3.17;2.88;;;20.50;99.90;;;;;;5032012;28;20204;-52
2022/10/23 02:27:15;;;;;;;5.00;3.15;;;20.50;99.90;;;;;;5046907;28;20195;-47
2022/10/23 02:29:48;;;;;;;3.33;2.95;;;20.50;99.90;;;;;;5045464;28;20195;-50
2022/10/23 02:32:17;;;;;;;3.70;3.25;;;20.50;99.90;;;;;;5036661;28;20203;-49
2022/10/23 02:34:44;;;;;;;5.57;2.85;;;20.50;99.90;;;;;;5035094;28;20215;-51
2022/10/23 02:37:11;;;;;;;3.10;2.80;;;20.40;99.90;;;;;;5030711;28;20207;-50
2022/10/23 02:39:39;;;;;;;2.70;2.50;;;20.40;99.90;;;;;;5035465;28;20196;-50
2022/10/23 02:42:11;;;;;;;4.05;3.65;;;20.40;99.90;;;;;;5038134;28;20209;-49
2022/10/23 02:44:49;;;;;;;3.38;2.70;;;20.40;99.90;;;;;;5035030;28;20202;-52
2022/10/23 02:47:29;;;;;;;3.72;3.42;;;20.40;99.90;;;;;;5041238;28;20195;-49
2022/10/23 02:50:04;;;;;;;4.45;2.92;;;20.30;99.90;;;;;;5042716;28;20558;-48
2022/10/23 02:52:40;;;;;;;3.47;2.70;;;20.30;99.90;;;;;;5042929;28;20230;-51
2022/10/23 02:55:17;;;;;;;3.08;2.78;;;20.30;99.90;;;;;;5040160;28;20586;-50
2022/10/23 02:57:49;;;;;;;2.85;2.65;;;20.30;99.90;;;;;;5047878;28;20199;-50
2022/10/23 03:00:20;;;;;;;3.17;2.50;;;20.30;99.90;;;;;;5047984;28;20195;-51
2022/10/23 03:02:52;;;;;;;3.38;3.05;;;20.30;99.90;;;;;;5047542;28;20202;-50
2022/10/23 03:05:22;;;;;;;3.42;3.03;;;20.20;99.90;;;;;;5039946;28;20605;-50
2022/10/23 03:07:49;;;;;;;3.90;3.00;;;20.20;99.90;;;;;;5042834;28;20602;-50
2022/10/23 03:10:16;;;;;;;2.90;2.60;;;20.20;99.90;;;;;;5045737;28;20197;-51
2022/10/23 03:12:43;;;;;;;3.13;2.83;;;20.20;99.90;;;;;;5043852;28;20195;-47
2022/10/23 03:15:11;;;;;;;2.92;2.65;;;20.20;99.90;;;;;;5044994;28;20223;-48
2022/10/23 03:17:39;;;;;;;3.20;2.63;;;20.20;99.90;;;;;;5046094;28;20632;-48
2022/10/23 03:20:07;;;;;;;3.50;2.80;;;20.10;99.90;;;;;;5055018;28;20191;-48
2022/10/23 03:22:34;;;;;;;3.88;2.75;;;20.10;99.90;;;;;;5050151;28;20198;-47
2022/10/23 03:25:01;;;;;;;3.28;2.70;;;20.10;99.90;;;;;;5047718;28;20566;-50
2022/10/23 03:27:28;;;;;;;3.92;3.22;;;20.10;99.90;;;;;;5055167;28;20191;-46
2022/10/23 03:29:55;;;;;;;3.42;2.90;;;20.10;99.90;;;;;;5047915;28;20202;-49
2022/10/23 03:32:21;;;;;;;3.00;2.67;;;20.10;99.90;;;;;;5039011;28;20196;-48
2022/10/23 03:34:49;;;;;;;3.47;3.13;;;20.10;99.90;;;;;;5048776;28;20198;-50
2022/10/23 03:37:16;;;;;;;3.05;2.75;;;20.00;99.90;;;;;;5042174;28;20194;-50
2022/10/23 03:39:43;;;;;;;3.20;2.90;;;20.00;99.90;;;;;;5051861;28;20329;-50
2022/10/23 03:42:09;;;;;;;3.33;3.00;;;20.00;99.90;;;;;;5046625;28;20218;-50
2022/10/23 03:44:36;;;;;;;4.95;2.53;;;20.00;99.90;;;;;;5044630;28;20492;-50
2022/10/23 03:47:03;;;;;;;3.15;2.85;;;20.30;99.90;;;;;;5043519;28;20206;-51
2022/10/23 03:49:29;;;;;;;3.17;2.78;;;20.60;99.90;;;;;;5044857;28;20204;-50
2022/10/23 03:51:58;;;;;;;3.03;2.38;;;20.80;99.90;;;;;;5045914;28;20192;-51
2022/10/23 03:54:27;;;;;;;3.17;2.60;;;21.00;99.90;;;;;;5050887;28;20628;-51
2022/10/23 03:56:54;;;;;;;2.60;2.40;;;21.10;99.90;;;;;;5046525;28;20215;-49
2022/10/23 03:59:21;;;;;;;3.00;2.70;;;21.20;99.90;;;;;;5046605;28;20199;-48
2022/10/23 04:01:48;;;;;;;2.80;2.60;;;21.30;99.90;;;;;;5049721;28;20333;-51
2022/10/23 04:04:15;;;;;;;2.70;2.50;;;21.40;99.90;;;;;;5046056;28;20195;-49
2022/10/23 04:06:41;;;;;;;3.10;2.58;;;21.40;99.90;;;;;;5040724;28;20195;-49
2022/10/23 04:09:10;;;;;;;2.73;2.50;;;21.50;99.90;;;;;;5049163;28;20195;-48
2022/10/23 04:11:36;;;;;;;2.23;2.03;;;21.60;99.90;;;;;;5043910;28;20442;-52
2022/10/23 04:14:03;;;;;;;4.17;2.77;;;21.70;99.90;;;;;;5047745;28;20461;-49
2022/10/23 04:16:30;;;;;;;2.77;2.50;;;21.70;99.90;;;;;;5035227;28;20498;-50
2022/10/23 04:18:56;;;;;;;2.60;2.40;;;21.60;99.90;;;;;;5047343;28;20480;-51
2022/10/23 04:21:23;;;;;;;2.90;2.70;;;21.60;99.90;;;;;;5049102;28;20465;-49
2022/10/23 04:23:50;;;;;;;2.40;2.20;;;21.50;99.90;;;;;;5039962;28;20450;-49
2022/10/23 04:26:18;;;;;;;2.50;2.30;;;21.60;99.90;;;;;;5048846;28;20939;-49
2022/10/23 04:28:45;;;;;;;4.07;2.70;;;21.50;99.90;;;;;;5038873;28;20520;-50
2022/10/23 04:31:12;;;;;;;2.20;2.00;;;21.50;99.90;;;;;;5039853;28;20470;-49
2022/10/23 04:33:38;;;;;;;3.40;2.53;;;21.50;99.90;;;;;;5039904;28;20948;-50
2022/10/23 04:36:06;;;;;;;2.27;2.07;;;21.40;99.90;;;;;;5052956;28;20473;-49
2022/10/23 04:38:33;;;;;;;2.87;2.57;;;21.40;99.90;;;;;;5049519;28;20500;-54
2022/10/23 04:40:59;;;;;;;2.30;2.10;;;21.40;99.90;;;;;;5035957;28;20470;-49
2022/10/23 04:43:27;;;;;;;2.60;2.20;;;21.40;99.90;;;;;;5040559;28;20457;-49
2022/10/23 04:45:54;;;;;;;2.10;1.90;;;21.30;99.90;;;;;;5038308;28;20466;-50
2022/10/23 04:48:21;;;;;;;2.40;2.20;;;21.30;99.90;;;;;;5050538;28;20971;-50
2022/10/23 04:50:56;;;;;;;2.63;2.43;;;21.30;99.90;;;;;;5049050;28;20458;-51
2022/10/23 04:53:23;;;;;;;2.50;2.30;;;21.30;99.90;;;;;;5050991;28;20848;-49
2022/10/23 04:55:50;;;;;;;2.67;2.20;;;21.30;99.90;;;;;;5033971;28;20497;-51
2022/10/23 04:58:17;;;;;;;4.07;2.57;;;21.30;99.90;;;;;;5048490;28;20553;-52
2022/10/23 05:00:46;;;;;;;2.40;2.07;;;21.40;99.90;;;;;;5037902;28;20458;-49
2022/10/23 05:03:13;;;;;;;2.40;2.20;;;21.40;99.90;;;;;;5045906;28;20466;-50
2022/10/23 05:05:40;;;;;;;2.37;2.13;;;21.50;99.90;;;;;;5048389;28;20477;-49
2022/10/23 05:08:07;;;;;;;2.17;1.97;;;21.60;99.90;;;;;;5050268;28;20457;-51
2022/10/23 05:10:34;;;;;;;2.60;2.40;;;21.70;99.90;;;;;;5043918;28;20465;-51
2022/10/23 05:13:01;;;;;;;2.37;2.10;;;21.80;99.90;;;;;;5042844;28;20457;-52
2022/10/23 05:15:28;;;;;;;2.40;2.20;;;21.90;99.90;;;;;;5040844;28;20473;-53
2022/10/23 05:18:00;;;;;;;2.20;2.00;;;21.90;99.90;;;;;;5046564;28;20461;-54
2022/10/23 05:20:31;;;;;;;2.50;2.30;;;21.90;99.90;;;;;;5042056;28;20467;-51
2022/10/23 05:23:00;;;;;;;2.47;2.27;;;21.90;99.90;;;;;;5046726;28;20466;-51
2022/10/23 05:25:27;;;;;;;3.40;2.50;;;21.90;99.90;;;;;;5040685;28;20485;-52
2022/10/23 05:27:54;;;;;;;2.40;2.17;;;21.90;99.90;;;;;;5040645;28;20457;-49
2022/10/23 05:30:20;;;;;;;2.57;2.17;;;22.00;99.90;;;;;;5043652;28;20466;-50
2022/10/23 05:32:47;;;;;;;2.50;2.00;;;22.00;99.90;;;;;;5043544;28;20562;-53
2022/10/23 05:35:21;;;;;;;2.73;2.40;;;22.00;99.90;;;;;;5043768;28;20485;-51
2022/10/23 05:37:49;;;;;;;2.60;2.40;;;22.00;99.90;;;;;;5046834;28;20451;-50
2022/10/23 05:40:16;;;;;;;3.30;2.37;;;22.00;99.90;;;;;;5037171;28;20470;-54
2022/10/23 05:42:43;;;;;;;1.80;1.70;;;22.00;99.90;;;;;;5055901;28;20445;-50
2022/10/23 05:45:10;;;;;;;1.87;1.77;;;22.00;99.90;;;;;;5039864;28;20476;-48
2022/10/23 05:47:37;;;;;;;2.40;2.27;;;22.00;99.90;;;;;;5040036;28;20465;-47
2022/10/23 05:50:04;;;;;;;2.50;1.70;;;22.10;99.90;;;;;;5039121;28;20466;-49
2022/10/23 05:52:32;;;;;;;2.43;1.90;;;22.20;99.90;;;;;;5045589;28;20829;-47
2022/10/23 05:54:59;;;;;;;2.13;1.93;;;22.40;99.90;;;;;;5044515;28;20485;-47
2022/10/23 05:57:25;;;;;;;4.50;2.33;;;22.50;99.90;;;;;;5042056;28;20501;-46
2022/10/23 05:59:52;;;;;;;2.20;2.00;;;22.50;99.90;;;;;;5037837;28;20842;-49
2022/10/23 06:02:19;;;;;;;2.60;2.40;;;22.50;99.90;;;;;;5033021;28;20461;-49
2022/10/23 06:04:46;;;;;;;3.43;2.53;;;22.40;99.90;;;;;;5042410;28;20507;-48
2022/10/23 06:07:12;;;;;;;4.10;2.30;;;22.40;99.90;;;;;;5036513;28;20860;-46
2022/10/23 06:09:40;;;;;;;3.97;2.50;;;22.40;99.90;;;;;;5040802;28;20462;-45
2022/10/23 06:12:07;;;;;;;2.40;2.20;;;22.40;99.90;;;;;;5035140;28;20480;-47
2022/10/23 06:14:34;;;;;;;4.17;2.40;;;22.40;99.90;;;;;;5036849;28;20457;-47
2022/10/23 06:17:00;;;;;;;2.30;2.10;;;22.40;99.90;;;;;;5037622;28;20497;-48
2022/10/23 06:19:27;;;;;;;2.70;2.43;;;22.40;99.90;;;;;;5048423;28;20481;-46
2022/10/23 06:21:54;;;;;;;3.50;2.70;;;22.40;99.90;;;;;;5042336;28;20872;-47
2022/10/23 06:24:20;;;;;;;2.03;1.83;;;22.40;99.90;;;;;;5047015;28;20457;-48
2022/10/23 06:26:48;;;;;;;3.80;2.67;;;22.30;99.90;;;;;;5046457;28;20465;-46
2022/10/23 06:29:15;;;;;;;2.37;2.13;;;22.40;99.90;;;;;;5042958;28;20451;-48
2022/10/23 06:31:42;;;;;;;2.40;2.20;;;22.40;99.90;;;;;;5044211;28;20453;-46
2022/10/23 06:34:11;;;;;;;2.57;2.37;;;22.40;99.90;;;;;;5048303;28;20879;-49
2022/10/23 06:36:38;;;;;;;2.20;2.00;;;22.50;99.90;;;;;;5035426;28;20984;-46
2022/10/23 06:39:06;;;;;;;2.70;2.50;;;22.50;99.90;;;;;;5032429;28;20847;-46
2022/10/23 06:41:32;;;;;;;3.50;2.20;;;22.50;99.90;;;;;;5043683;28;20479;-45
2022/10/23 06:44:01;;;;;;;2.73;2.50;;;22.50;99.90;;;;;;5049377;28;20465;-48
2022/10/23 06:46:31;;;;;;;2.63;2.43;;;22.60;99.90;;;;;;5049587;28;20869;-45
2022/10/23 06:48:58;;;;;;;2.37;2.17;;;22.60;99.90;;;;;;5048337;28;20464;-49
2022/10/23 06:51:28;;;;;;;3.10;2.13;;;22.60;99.90;;;;;;5034038;28;20453;-48
2022/10/23 06:53:55;;;;;;;3.03;2.30;;;22.60;99.90;;;;;;5031986;28;20451;-48
2022/10/23 06:56:24;;;;;;;4.73;2.40;;;22.60;99.90;;;;;;5050486;28;20488;-50
2022/10/23 06:58:50;;;;;;;3.00;2.50;;;22.60;99.90;;;;;;5038130;28;20442;-48
2022/10/23 07:01:18;;;;;;;2.70;2.50;;;22.60;99.90;;;;;;5040433;28;20817;-48
2022/10/23 07:03:45;;;;;;;3.30;2.63;;;22.60;99.90;;;;;;5044456;28;20437;-47
2022/10/23 07:06:12;;;;;;;2.10;2.00;;;22.60;99.90;;;;;;5035110;28;20489;-48
2022/10/23 07:08:39;;;;;;;2.50;2.30;;;22.60;99.90;;;;;;5041126;28;20934;-48
2022/10/23 07:11:07;;;;;;;6.60;3.07;;;22.60;99.90;;;;;;5041272;28;20964;-43
2022/10/23 07:13:35;;;;;;;2.70;1.73;;;22.60;99.90;;;;;;5041866;28;20860;-46
2022/10/23 07:16:10;;;;;;;3.30;2.37;;;22.70;99.90;;;;;;5036280;28;20453;-46
2022/10/23 07:18:38;;;;;;;3.10;2.40;;;22.70;99.90;;;;;;5039802;28;20449;-46
2022/10/23 07:21:05;;;;;;;2.13;1.93;;;22.80;99.90;;;;;;5036884;28;20480;-47
2022/10/23 07:23:31;;;;;;;2.23;2.03;;;22.80;99.90;;;;;;5035157;28;20465;-47
2022/10/23 07:26:04;;;;;;;6.60;2.70;;;22.90;99.90;;;;;;5047802;28;20462;-45
2022/10/23 07:28:30;;;;;;;2.20;2.00;;;23.00;99.90;;;;;;5036783;28;20455;-47
2022/10/23 07:30:57;;;;;;;2.57;2.37;;;23.10;99.90;;;;;;5037824;28;20450;-48
2022/10/23 07:33:24;;;;;;;2.13;1.93;;;23.10;99.90;;;;;;5041023;28;20516;-48
2022/10/23 07:35:52;;;;;;;2.57;2.10;;;23.10;99.90;;;;;;5045024;28;20449;-47
2022/10/23 07:38:19;;;;;;;2.40;2.20;;;23.10;99.90;;;;;;5048162;28;20476;-47
2022/10/23 07:40:46;;;;;;;2.90;2.27;;;23.10;99.90;;;;;;5035728;28;20470;-49
2022/10/23 07:43:12;;;;;;;2.77;2.47;;;23.10;99.90;;;;;;5035876;28;20460;-49
2022/10/23 07:45:40;;;;;;;2.20;2.00;;;23.10;99.90;;;;;;5049592;28;20460;-49
2022/10/23 07:48:06;;;;;;;3.50;2.20;;;23.10;99.90;;;;;;5033593;28;20465;-46
2022/10/23 07:50:33;;;;;;;2.10;1.90;;;23.10;99.90;;;;;;5043965;28;20461;-45
2022/10/23 07:53:01;;;;;;;5.33;1.90;;;23.10;99.90;;;;;;5037551;28;20512;-48
2022/10/23 07:55:28;;;;;;;2.23;2.03;;;23.00;99.90;;;;;;5037679;28;20824;-51
2022/10/23 07:57:54;;;;;;;3.00;2.10;;;23.00;99.90;;;;;;5037410;28;21004;-49
2022/10/23 08:00:21;;;;;;;2.53;2.03;;;23.00;99.90;;;;;;5035252;28;21172;-48
2022/10/23 08:02:48;;;;;;;1.93;1.83;;;23.00;99.90;;;;;;5047598;28;20974;-51
2022/10/23 08:05:15;;;;;;;3.50;2.57;;;22.90;99.90;;;;;;5048610;28;20539;-48
2022/10/23 08:07:41;;;;;;;3.40;1.83;;;22.90;99.90;;;;;;5045154;28;20461;-50
2022/10/23 08:10:10;;;;;;;2.90;2.30;;;22.90;99.90;;;;;;5040712;28;20955;-51
2022/10/23 08:12:37;;;;;;;2.37;2.17;;;22.90;99.90;;;;;;5041561;28;20462;-51
2022/10/23 08:15:05;;;;;;;2.37;1.80;;;22.90;99.90;;;;;;5041153;28;20551;-47
2022/10/23 08:17:31;;;;;;;7.23;2.80;;;22.80;99.90;;;;;;5041747;28;20504;-47
2022/10/23 08:19:58;;;;;;;10.20;2.33;;;22.80;99.90;;;;;;5047238;28;20473;-49
2022/10/23 08:22:25;;;;;;;3.37;2.40;;;22.70;99.90;;;;;;5043717;28;20457;-47
2022/10/23 08:24:51;;;;;;;8.13;2.13;;;22.60;99.90;;;;;;5046425;28;20469;-49
2022/10/23 08:27:19;;;;;;;2.40;2.20;;;22.60;99.90;;;;;;5041099;28;20489;-48
2022/10/23 08:29:46;;;;;;;2.43;1.93;;;22.60;99.90;;;;;;5035651;28;20454;-47
2022/10/23 08:32:13;;;;;;;4.37;2.10;;;22.50;99.90;;;;;;5035687;28;20928;-47
2022/10/23 08:34:40;;;;;;;4.43;2.20;;;22.50;99.90;;;;;;5041411;28;20449;-48
2022/10/23 08:37:07;;;;;;;3.03;2.03;;;22.40;99.90;;;;;;5040122;28;20478;-47
2022/10/23 08:39:34;;;;;;;2.90;2.50;;;22.40;99.90;;;;;;5050564;28;20461;-50
2022/10/23 08:42:00;;;;;;;2.00;1.80;;;22.40;99.90;;;;;;5044986;28;20468;-48
2022/10/23 08:44:33;;;;;;;3.33;2.70;;;22.30;99.90;;;;;;5038769;28;20447;-50
2022/10/23 08:47:05;;;;;;;3.70;2.10;;;22.30;99.90;;;;;;5043815;28;20883;-48
2022/10/23 08:49:42;;;;;;;3.10;2.30;;;22.20;99.90;;;;;;5052377;28;20466;-47
2022/10/23 08:52:17;;;;;;;3.63;2.27;;;22.20;99.90;;;;;;5041337;28;20458;-48
2022/10/23 08:55:01;;;;;;;4.43;1.70;;;22.30;99.90;;;;;;5044310;28;20460;-47
2022/10/23 08:57:34;;;;;;;2.80;2.00;;;22.50;99.90;;;;;;5044056;28;20508;-47
2022/10/23 09:00:05;;;;;;;3.50;1.87;;;22.80;99.90;;;;;;5042043;28;20455;-50
2022/10/23 09:02:39;;;;;;;3.73;2.10;;;23.10;99.90;;;;;;5044844;28;20462;-49
2022/10/23 09:05:13;;;;;;;5.63;2.10;;;23.50;99.90;;;;;;5048663;28;20474;-50
2022/10/23 09:07:47;;;;;;;2.07;1.87;;;23.90;99.90;;;;;;5036802;28;20926;-50
2022/10/23 09:10:32;;;;;;;2.17;1.73;;;24.00;99.40;;;;;;5043691;28;21008;-52
2022/10/23 09:13:04;;;;;;;2.10;1.70;;;24.10;99.00;;;;;;5039173;28;20465;-48
2022/10/23 09:15:40;;;;;;;3.03;2.23;;;24.10;98.70;;;;;;5045761;28;20770;-50
2022/10/23 09:18:13;;;;;;;1.80;1.70;;;24.00;98.60;;;;;;5039058;28;20500;-50
2022/10/23 09:20:42;;;;;;;1.83;1.73;;;24.00;98.70;;;;;;5042034;28;20524;-49
2022/10/23 09:23:16;;;;;;;3.60;2.17;;;23.90;98.60;;;;;;5047329;28;20512;-47
2022/10/23 09:25:44;;;;;;;2.03;1.83;;;23.80;99.10;;;;;;5043248;28;20449;-48
2022/10/23 09:28:18;;;;;;;2.13;1.70;;;23.80;98.90;;;;;;5041267;28;20469;-49
2022/10/23 09:30:47;;;;;;;1.70;1.60;;;23.70;98.90;;;;;;5034913;28;20457;-51
2022/10/23 09:33:15;;;;;;;1.70;1.57;;;23.60;99.10;;;;;;5040533;28;20466;-48
2022/10/23 09:35:52;;;;;;;2.00;1.50;;;23.50;99.20;;;;;;5042539;28;20538;-47
2022/10/23 09:38:28;;;;;;;2.00;1.67;;;23.50;99.30;;;;;;5049462;28;20480;-48
2022/10/23 09:40:55;;;;;;;1.40;1.30;;;23.40;99.40;;;;;;5042445;28;20457;-48
2022/10/23 09:43:24;;;;;;;2.20;2.00;;;23.30;99.50;;;;;;5040622;28;20470;-49
2022/10/23 09:45:58;;;;;;;1.77;1.50;;;23.30;99.60;;;;;;5037496;28;20774;-48
2022/10/23 09:48:25;;;;;;;1.20;1.10;;;23.30;99.70;;;;;;5048742;28;20470;-49
2022/10/23 09:50:54;;;;;;;2.37;1.60;;;23.20;99.70;;;;;;5044469;28;20462;-48
2022/10/23 09:53:32;;;;;;;1.77;1.30;;;23.20;99.70;;;;;;5038253;28;20458;-48
2022/10/23 09:56:03;;;;;;;2.23;1.57;;;23.20;99.80;;;;;;5043366;28;20851;-48
2022/10/23 09:58:33;;;;;;;1.60;1.40;;;23.10;99.80;;;;;;5047186;28;20485;-49
2022/10/23 10:01:01;;;;;;;1.70;1.50;;;23.10;99.90;;;;;;5032993;28;20458;-48
2022/10/23 10:03:28;;;;;;;3.10;1.90;;;23.10;99.90;;;;;;5042624;28;20461;-48
2022/10/23 10:05:59;;;;;;;2.43;1.77;;;23.10;99.90;;;;;;5043429;28;20453;-50
2022/10/23 10:08:35;;;;;;;1.87;1.70;;;23.10;99.90;;;;;;5046744;28;20465;-45
2022/10/23 10:11:07;;;;;;;1.73;1.47;;;23.10;99.90;;;;;;5043252;28;20853;-43
2022/10/23 10:14:05;;;;;;;1.83;1.63;;;23.10;99.90;;;;;;5038856;28;20465;-45
2022/10/23 10:16:46;;;;;;;1.53;1.40;;;23.20;99.90;;;;;;5013379;28;20477;-45
2022/10/23 10:19:25;;;;;;;5.80;1.53;;;23.20;99.90;;;;;;5048564;28;20457;-48
2022/10/23 10:21:59;;;;;;;2.40;1.90;;;23.20;99.90;;;;;;5043552;28;20457;-45
2022/10/23 10:24:34;;;;;;;1.57;1.47;;;23.20;99.90;;;;;;5046458;28;20466;-46
2022/10/23 10:27:09;;;;;;;3.27;1.90;;;23.20;99.90;;;;;;5045176;28;20947;-45
2022/10/23 10:29:50;;;;;;;2.07;1.87;;;23.20;99.90;;;;;;5042656;28;20450;-46
2022/10/23 10:32:30;;;;;;;1.50;1.40;;;23.20;99.90;;;;;;5035161;28;20883;-45
2022/10/23 10:35:11;;;;;;;1.83;1.53;;;23.20;99.90;;;;;;5048416;28;20488;-47
2022/10/23 10:37:52;;;;;;;2.63;1.63;;;23.10;99.90;;;;;;5045209;28;20477;-44
2022/10/23 10:40:25;;;;;;;1.73;1.60;;;23.10;99.90;;;;;;5044098;28;20470;-46
2022/10/23 10:43:09;;;;;;;2.70;1.47;;;23.10;99.90;;;;;;5039477;28;20468;-45
2022/10/23 10:45:39;;;;;;;4.40;1.40;;;23.00;99.90;;;;;;5034651;28;20460;-52
2022/10/23 10:48:33;;;;;;;7.80;1.97;;;23.00;99.90;;;;;;5043532;28;20449;-55
2022/10/23 10:51:03;;;;;;;2.13;1.73;;;22.80;99.90;;;;;;5044905;28;20462;-58
2022/10/23 10:53:40;;;;;;;14.27;2.10;;;22.80;99.90;;;;;;5048765;28;20443;-58
2022/10/23 10:56:13;;;;;;;7.27;2.23;;;22.90;99.90;;;;;;5036114;28;20580;-56
2022/10/23 10:58:45;;;;;;;7.00;2.40;;;23.10;99.90;;;;;;5038976;28;20885;-52
2022/10/23 11:01:25;;;;;;;9.47;2.40;;;23.20;99.90;;;;;;5037509;28;20470;-53
2022/10/23 11:03:57;;;;;;;3.97;2.00;;;23.30;99.90;;;;;;5049123;28;20441;-58
2022/10/23 11:06:29;;;;;;;25.00;3.23;;;23.30;99.90;;;;;;5039139;28;20824;-56
2022/10/23 11:08:56;;;;;;;9.63;2.43;;;23.50;99.90;;;;;;5043426;28;20469;-53
2022/10/23 11:11:28;;;;;;;14.93;2.80;;;23.60;99.90;;;;;;5050260;28;20817;-60
2022/10/23 11:13:56;;;;;;;12.30;3.30;;;23.70;99.90;;;;;;5045447;28;20474;-59
2022/10/23 11:16:27;;;;;;;8.30;3.43;;;23.90;99.90;;;;;;5039984;28;20474;-58
2022/10/23 11:19:04;;;;;;;10.40;2.20;;;24.00;99.90;;;;;;5048819;28;20860;-54
2022/10/23 11:21:39;;;;;;;9.07;2.23;;;24.00;99.90;;;;;;5040397;28;20554;-49
2022/10/23 11:24:33;;;;;;;8.73;3.03;;;23.90;99.90;;;;;;5037182;28;20456;-56
2022/10/23 11:27:17;;;;;;;5.23;2.33;;;23.70;99.90;;;;;;5044063;28;20453;-48
2022/10/23 11:30:13;;;;;;;6.10;2.13;;;23.50;99.90;;;;;;5041226;28;20457;-51
2022/10/23 11:33:20;;;;;;;9.50;2.20;;;23.50;99.90;;;;;;5041330;28;20484;-58
2022/10/23 11:35:57;;;;;;;8.43;2.83;;;23.40;99.90;;;;;;5050316;28;20464;-57
2022/10/23 11:38:27;;;;;;;11.80;2.93;;;23.40;99.90;;;;;;5049402;28;20481;-54
2022/10/23 11:40:59;;;;;;;7.00;2.40;;;23.40;99.90;;;;;;5039953;28;20469;-52
2022/10/23 11:43:27;;;;;;;4.97;2.00;;;23.40;99.90;;;;;;5050135;28;20453;-50
2022/10/23 11:45:54;;;;;;;4.37;2.30;;;23.30;99.90;;;;;;5051816;28;20460;-60
2022/10/23 11:48:23;;;;;;;5.33;2.20;;;23.40;99.90;;;;;;5043939;28;20549;-52
2022/10/23 11:50:53;;;;;;;5.67;2.57;;;23.30;99.90;;;;;;5036742;28;20469;-58
2022/10/23 11:53:26;;;;;;;4.33;2.30;;;23.30;99.90;;;;;;5041788;28;20898;-56
2022/10/23 11:56:02;;;;;;;5.13;2.93;;;23.40;99.90;;;;;;5041410;28;20460;-57
2022/10/23 11:58:42;;;;;;;4.10;2.50;;;23.30;99.90;;;;;;5047442;28;20866;-53
2022/10/23 12:01:23;;;;;;;8.60;3.67;;;23.30;99.90;;;;;;5038321;28;20760;-62
2022/10/23 12:03:53;;;;;;;6.47;2.73;;;23.30;99.90;;;;;;5041377;28;20492;-59
2022/10/23 12:06:26;;;;;;;5.87;2.00;;;23.30;99.90;;;;;;5048787;28;20448;-59
2022/10/23 12:08:57;;;;;;;7.03;2.70;;;23.30;99.90;;;;;;5035479;28;20450;-50
2022/10/23 12:11:39;;;;;;;5.43;2.10;;;23.30;99.90;;;;;;5043857;28;20458;-61
2022/10/23 12:14:26;;;;;;;6.77;2.70;;;23.30;99.90;;;;;;5038867;28;20528;-58
2022/10/23 12:16:52;;;;;;;3.17;2.07;;;23.30;99.90;;;;;;5035049;28;20498;-55
2022/10/23 12:19:22;;;;;;;4.53;2.03;;;23.30;99.90;;;;;;5041769;28;20477;-56
2022/10/23 12:21:53;;;;;;;3.93;2.37;;;23.30;99.90;;;;;;5047764;28;20459;-59
2022/10/23 12:24:46;;;;;;;6.37;3.20;;;23.30;99.90;;;;;;5038884;28;20465;-38
2022/10/23 12:27:31;;;;;;;4.67;2.13;;;21.60;99.90;;;;;;5036517;28;20484;-39
2022/10/23 12:30:11;;;;;;;5.10;2.60;;;21.00;99.90;;;;;;5042922;28;20497;-40
2022/10/23 12:33:02;;;;;;;2.97;1.73;;;20.90;99.90;;;;;;5049746;28;20514;-40
2022/10/23 12:36:01;;;;;;;5.10;2.00;;;21.10;99.90;;;;;;5042583;28;20461;-36
2022/10/23 12:38:30;;;;;;;4.70;3.13;;;21.40;99.90;;;;;;5046782;28;20485;-42
2022/10/23 12:41:03;;;;;;;4.00;2.30;;;21.30;99.90;;;;;;5045078;28;21040;-39
2022/10/23 12:43:32;;;;;;;16.13;1.77;;;21.10;99.90;;;;;;5043466;28;20489;-40
2022/10/23 12:46:03;;;;;;;4.60;1.80;;;21.30;99.90;;;;;;5051659;28;20444;-38
2022/10/23 12:48:33;;;;;;;2.90;1.50;;;21.50;99.90;;;;;;5046161;28;20457;-39
2022/10/23 12:51:00;;;;;;;3.20;2.00;;;21.30;99.90;;;;;;5045796;28;20466;-39
2022/10/23 12:53:26;;;;;;;2.70;1.83;;;20.80;99.90;;;;;;5051135;28;20465;-40
2022/10/23 12:55:57;;;;;;;3.40;1.50;;;20.70;99.90;;;;;;5041920;28;20457;-58
2022/10/23 12:58:26;;;;;;;2.80;1.90;;;21.00;99.90;;;;;;5045642;28;20482;-51
2022/10/23 13:00:54;;;;;;;4.37;1.63;;;21.70;99.90;;;;;;5049543;28;20465;-56
2022/10/23 13:03:22;;;;;;;7.20;2.20;;;22.10;99.90;;;;;;5046888;28;20507;-55